Terminal Aerodrome Forecast
Issued by NWS

Home | Current Version | Previous Version | Text Only | Print | Product List | Glossary On
Versions: 1 2 3 4 5 6 7 8 9 10 11 12 13 14
000
FTUS46 KMTR 050520
TAFSTS
TAF
KSTS 050520Z 0506/0606 18004KT P6SM SKC
      TEMPO 0507/0511 1/2SM FG VV002
     FM051100 VRB03KT 1/4SM FG VV001
     FM051730 18011KT P6SM FEW250
     FM060400 VRB03KT P6SM FEW250=

USA.gov is the U.S. government's official web portal to all federal, state and local government web resources and services.